Time;durP1;ratioP1;P1;durP2;ratioP2;P2;SDS_P1;SDS_P2;PMS_P1;PMS_P2;Temp;Humidity;BMP_temperature;BMP_pressure;BME280_temperature;BME280_humidity;BME280_pressure;Samples;Min_cycle;Max_cycle;Signal;HPM_P1;HPM_P2
2021/07/06 00:00:35;;;;;;;4.95;1.23;;;23.40;96.70;;;;;;5004629;28;20068;-74
2021/07/06 00:03:04;;;;;;;3.83;1.33;;;23.30;96.70;;;;;;5004118;28;20136;-75
2021/07/06 00:05:34;;;;;;;3.53;1.30;;;23.30;96.70;;;;;;5004577;28;20034;-74
2021/07/06 00:08:03;;;;;;;3.08;1.08;;;23.10;96.70;;;;;;5006361;28;20038;-74
2021/07/06 00:10:35;;;;;;;4.65;1.80;;;23.00;96.70;;;;;;5003085;28;20095;-74
2021/07/06 00:13:04;;;;;;;3.50;1.17;;;22.90;96.70;;;;;;5008774;28;20046;-74
2021/07/06 00:15:34;;;;;;;2.75;1.05;;;22.90;96.70;;;;;;5003400;28;20128;-74
2021/07/06 00:18:03;;;;;;;4.32;1.17;;;22.80;96.70;;;;;;5005337;28;20046;-74
2021/07/06 00:20:32;;;;;;;4.55;1.20;;;22.90;96.70;;;;;;5002890;28;20038;-74
2021/07/06 00:23:04;;;;;;;3.47;1.15;;;22.90;96.70;;;;;;5004084;28;20053;-74
2021/07/06 00:25:32;;;;;;;3.22;1.20;;;23.00;96.70;;;;;;4987260;28;20074;-74
2021/07/06 00:28:00;;;;;;;5.00;1.48;;;22.90;96.70;;;;;;5002677;28;20054;-75
2021/07/06 00:30:29;;;;;;;3.20;1.20;;;22.90;96.70;;;;;;5003550;28;20046;-75
2021/07/06 00:32:57;;;;;;;4.40;1.40;;;22.90;96.70;;;;;;5006503;28;20051;-74
2021/07/06 00:35:26;;;;;;;2.97;1.00;;;22.90;96.70;;;;;;5004530;28;20041;-74
2021/07/06 00:37:54;;;;;;;3.22;1.10;;;22.90;96.70;;;;;;5008718;28;20044;-75
2021/07/06 00:40:24;;;;;;;4.18;1.10;;;22.90;96.70;;;;;;5002850;28;20038;-74
2021/07/06 00:42:58;;;;;;;2.88;1.08;;;22.90;96.70;;;;;;5006815;28;20049;-74
2021/07/06 00:45:28;;;;;;;3.42;1.23;;;22.80;96.70;;;;;;5004907;28;20459;-75
2021/07/06 00:48:00;;;;;;;2.58;1.10;;;22.80;96.70;;;;;;5006286;28;20049;-74
2021/07/06 00:50:29;;;;;;;3.67;0.95;;;22.80;96.70;;;;;;5001299;28;20038;-74
2021/07/06 00:52:58;;;;;;;3.20;1.10;;;22.80;96.70;;;;;;5015271;28;20049;-74
2021/07/06 00:55:30;;;;;;;3.88;1.20;;;22.80;96.70;;;;;;5004881;28;20541;-74
2021/07/06 00:57:58;;;;;;;3.65;1.60;;;22.70;96.70;;;;;;5002154;28;20061;-74
2021/07/06 01:00:27;;;;;;;3.20;1.10;;;22.70;96.70;;;;;;5006431;28;20041;-73
2021/07/06 01:02:55;;;;;;;3.92;1.40;;;22.70;96.70;;;;;;5004288;28;20160;-74
2021/07/06 01:05:25;;;;;;;2.63;0.90;;;22.80;96.70;;;;;;5005755;28;20042;-74
2021/07/06 01:07:55;;;;;;;4.90;1.30;;;22.90;96.70;;;;;;4999571;28;20515;-74
2021/07/06 01:10:23;;;;;;;2.13;1.05;;;22.90;96.70;;;;;;5004965;28;20038;-74
2021/07/06 01:12:53;;;;;;;6.32;1.08;;;22.90;96.70;;;;;;5003133;28;20052;-74
2021/07/06 01:15:23;;;;;;;3.35;1.10;;;22.80;96.70;;;;;;5006860;28;20034;-73
2021/07/06 01:18:03;;;;;;;5.47;1.40;;;22.70;96.70;;;;;;5005032;28;20605;-73
2021/07/06 01:20:32;;;;;;;4.13;1.35;;;22.70;96.70;;;;;;5024173;28;20045;-74
2021/07/06 01:23:04;;;;;;;3.83;1.15;;;22.60;96.70;;;;;;5005098;28;20116;-73
2021/07/06 01:25:32;;;;;;;3.05;1.00;;;22.50;96.70;;;;;;5006178;28;20512;-73
2021/07/06 01:28:02;;;;;;;1.90;0.85;;;22.50;96.70;;;;;;5004568;28;20050;-73
2021/07/06 01:30:31;;;;;;;4.18;1.05;;;22.40;96.70;;;;;;5007043;28;20120;-73
2021/07/06 01:33:00;;;;;;;4.47;1.00;;;22.40;96.70;;;;;;5011470;28;20127;-73
2021/07/06 01:35:29;;;;;;;2.72;1.20;;;22.50;96.70;;;;;;5006916;28;20049;-74
2021/07/06 01:37:59;;;;;;;2.95;1.13;;;22.40;96.70;;;;;;5003737;28;20519;-73
2021/07/06 01:40:31;;;;;;;3.58;1.23;;;22.40;96.70;;;;;;5007569;28;20065;-73
2021/07/06 01:43:00;;;;;;;2.53;1.00;;;22.40;96.70;;;;;;5003019;28;20056;-74
2021/07/06 01:45:30;;;;;;;2.42;0.88;;;22.50;96.70;;;;;;5003999;28;20037;-72
2021/07/06 01:48:00;;;;;;;3.53;1.08;;;22.40;96.70;;;;;;5003765;28;20050;-73
2021/07/06 01:50:30;;;;;;;4.60;1.15;;;22.40;96.70;;;;;;5009638;28;20049;-73
2021/07/06 01:53:00;;;;;;;4.93;1.20;;;22.40;96.70;;;;;;5007476;28;20041;-73
2021/07/06 01:55:31;;;;;;;2.90;0.85;;;22.30;96.70;;;;;;5009422;28;20145;-73
2021/07/06 01:58:02;;;;;;;3.78;1.13;;;22.20;96.70;;;;;;5005015;28;20042;-72
2021/07/06 02:00:32;;;;;;;6.28;1.33;;;22.20;96.70;;;;;;5004019;28;20084;-75
2021/07/06 02:03:03;;;;;;;4.10;1.00;;;22.10;96.70;;;;;;5010424;28;20053;-73
2021/07/06 02:05:35;;;;;;;2.83;1.08;;;22.10;96.70;;;;;;4990813;28;20042;-73
2021/07/06 02:08:05;;;;;;;4.60;1.20;;;22.10;96.70;;;;;;5008037;28;20414;-73
2021/07/06 02:10:36;;;;;;;5.93;1.17;;;21.90;96.70;;;;;;4985691;28;20045;-75
2021/07/06 02:13:07;;;;;;;3.45;1.15;;;21.90;96.70;;;;;;5006981;28;20034;-75
2021/07/06 02:15:36;;;;;;;4.88;0.93;;;21.90;96.70;;;;;;5009675;28;20056;-75
2021/07/06 02:18:05;;;;;;;2.75;0.88;;;22.00;96.70;;;;;;5005471;28;20439;-75
2021/07/06 02:20:33;;;;;;;3.38;1.40;;;22.00;96.70;;;;;;5000785;28;20034;-75
2021/07/06 02:23:06;;;;;;;3.63;1.17;;;22.00;96.70;;;;;;5006606;28;20041;-75
2021/07/06 02:25:36;;;;;;;2.65;1.10;;;22.00;96.70;;;;;;5002021;28;20038;-75
2021/07/06 02:28:04;;;;;;;3.63;1.33;;;21.90;96.70;;;;;;5020619;28;20041;-75
2021/07/06 02:30:33;;;;;;;4.38;0.90;;;21.80;96.70;;;;;;5002250;28;20034;-75
2021/07/06 02:33:02;;;;;;;3.72;1.13;;;21.80;96.70;;;;;;5009051;28;20095;-75
2021/07/06 02:35:31;;;;;;;3.05;1.00;;;21.80;96.70;;;;;;5005406;28;20046;-75
2021/07/06 02:38:00;;;;;;;3.30;1.00;;;21.90;96.70;;;;;;5004187;28;20554;-75
2021/07/06 02:40:29;;;;;;;3.13;1.02;;;22.00;96.70;;;;;;5002275;28;20049;-76
2021/07/06 02:43:00;;;;;;;4.57;1.33;;;22.00;96.70;;;;;;5006492;28;20151;-75
2021/07/06 02:45:29;;;;;;;2.83;1.05;;;22.10;96.70;;;;;;5006025;28;20377;-75
2021/07/06 02:47:58;;;;;;;1.80;0.73;;;22.10;96.70;;;;;;4999563;28;20070;-74
2021/07/06 02:50:27;;;;;;;4.53;1.05;;;22.00;96.70;;;;;;5003351;28;20112;-74
2021/07/06 02:52:56;;;;;;;3.20;1.20;;;22.00;96.70;;;;;;5003304;28;20049;-74
2021/07/06 02:55:24;;;;;;;3.25;0.82;;;21.90;96.70;;;;;;5003255;28;20046;-74
2021/07/06 02:57:53;;;;;;;3.35;1.17;;;21.80;96.70;;;;;;5004401;28;20042;-74
2021/07/06 03:00:25;;;;;;;5.18;1.10;;;21.80;96.70;;;;;;5017641;28;20053;-74
2021/07/06 03:02:55;;;;;;;3.13;1.33;;;21.70;96.70;;;;;;5007707;28;20034;-75
2021/07/06 03:05:25;;;;;;;3.40;1.08;;;21.60;96.70;;;;;;5006759;28;20045;-74
2021/07/06 03:07:53;;;;;;;2.22;0.90;;;21.60;96.70;;;;;;5003726;28;20046;-74
2021/07/06 03:10:23;;;;;;;5.45;1.17;;;21.60;96.70;;;;;;5004423;28;20042;-74
2021/07/06 03:12:52;;;;;;;5.68;0.95;;;21.70;96.70;;;;;;5003603;28;20045;-74
2021/07/06 03:15:24;;;;;;;3.35;1.02;;;21.50;96.70;;;;;;5006799;28;20046;-74
2021/07/06 03:17:53;;;;;;;2.10;1.00;;;21.50;96.70;;;;;;5004756;28;20050;-75
2021/07/06 03:20:25;;;;;;;2.40;0.90;;;21.50;96.70;;;;;;5006351;28;20038;-74
2021/07/06 03:22:54;;;;;;;4.13;0.98;;;21.50;96.70;;;;;;5001855;28;20124;-74
2021/07/06 03:25:23;;;;;;;4.03;1.48;;;21.50;96.70;;;;;;5002780;28;20033;-74
2021/07/06 03:27:52;;;;;;;2.95;1.20;;;21.50;96.70;;;;;;5007048;28;20054;-74
2021/07/06 03:30:24;;;;;;;2.15;0.68;;;21.50;96.70;;;;;;5005045;28;20614;-74
2021/07/06 03:32:54;;;;;;;3.85;1.10;;;21.40;96.70;;;;;;4998833;28;20046;-74
2021/07/06 03:35:24;;;;;;;1.85;1.00;;;21.40;96.70;;;;;;5005085;28;20128;-74
2021/07/06 03:37:52;;;;;;;3.15;1.17;;;21.40;96.70;;;;;;5003720;28;20253;-74
2021/07/06 03:40:21;;;;;;;4.45;1.58;;;21.30;96.70;;;;;;5007857;28;20041;-74
2021/07/06 03:42:49;;;;;;;6.55;1.50;;;21.30;96.70;;;;;;5022605;28;20049;-74
2021/07/06 03:45:19;;;;;;;3.85;1.42;;;21.40;96.70;;;;;;5008108;28;20552;-74
2021/07/06 03:47:49;;;;;;;4.63;1.00;;;21.50;96.70;;;;;;5001219;28;20046;-74
2021/07/06 03:50:19;;;;;;;3.60;1.38;;;21.50;96.70;;;;;;5003735;28;20056;-74
2021/07/06 03:52:49;;;;;;;4.07;1.00;;;21.50;96.70;;;;;;5001573;28;20054;-75
2021/07/06 03:55:18;;;;;;;3.88;1.40;;;21.40;96.70;;;;;;5004640;28;20056;-74
2021/07/06 03:57:47;;;;;;;3.40;1.20;;;21.40;96.70;;;;;;5018250;28;20053;-74
2021/07/06 04:00:18;;;;;;;3.30;1.08;;;21.40;96.70;;;;;;5005475;28;20099;-73
2021/07/06 04:02:48;;;;;;;4.07;1.00;;;21.40;96.70;;;;;;5005008;28;20057;-73
2021/07/06 04:05:17;;;;;;;4.43;1.40;;;21.30;96.70;;;;;;5007474;28;20049;-74
2021/07/06 04:07:46;;;;;;;5.07;1.35;;;21.30;96.70;;;;;;5004295;28;20504;-74
2021/07/06 04:10:16;;;;;;;2.90;1.08;;;21.30;96.70;;;;;;5003324;28;20441;-74
2021/07/06 04:12:46;;;;;;;3.40;1.10;;;21.30;96.70;;;;;;5017716;28;20415;-74
2021/07/06 04:15:16;;;;;;;2.65;1.10;;;21.40;96.70;;;;;;5004418;28;20072;-74
2021/07/06 04:17:44;;;;;;;3.30;1.20;;;21.30;96.70;;;;;;5002449;28;20396;-72
2021/07/06 04:20:16;;;;;;;4.05;1.20;;;21.20;96.70;;;;;;5003586;28;20092;-74
2021/07/06 04:22:45;;;;;;;4.90;1.23;;;21.20;96.70;;;;;;5005823;28;20041;-74
2021/07/06 04:25:14;;;;;;;3.83;1.27;;;21.20;96.70;;;;;;5005254;28;20042;-74
2021/07/06 04:27:42;;;;;;;3.40;1.40;;;21.30;96.70;;;;;;5003945;28;20595;-74
2021/07/06 04:30:12;;;;;;;4.10;1.48;;;21.30;96.70;;;;;;5002585;28;20041;-74
2021/07/06 04:32:40;;;;;;;3.38;1.15;;;21.40;96.70;;;;;;5018796;28;20312;-74
2021/07/06 04:35:09;;;;;;;3.28;1.17;;;21.30;96.70;;;;;;5006981;28;20042;-74
2021/07/06 04:37:39;;;;;;;3.10;1.30;;;21.30;96.70;;;;;;5018073;28;20117;-74
2021/07/06 04:40:10;;;;;;;1.23;0.95;;;21.30;96.70;;;;;;5002581;28;20382;-74
2021/07/06 04:42:43;;;;;;;4.00;1.02;;;21.40;96.70;;;;;;5003389;28;20136;-74
2021/07/06 04:45:12;;;;;;;3.65;1.02;;;21.40;96.70;;;;;;5016988;28;20451;-74
2021/07/06 04:47:40;;;;;;;4.68;1.17;;;21.40;96.70;;;;;;5012217;28;20486;-74
2021/07/06 04:50:12;;;;;;;3.90;1.23;;;21.40;96.70;;;;;;5008340;28;20427;-74
2021/07/06 04:52:46;;;;;;;4.22;0.90;;;21.50;96.70;;;;;;5006416;28;20042;-75
2021/07/06 04:55:15;;;;;;;2.95;1.15;;;21.50;96.70;;;;;;5022211;28;20136;-74
2021/07/06 04:57:44;;;;;;;5.85;1.40;;;21.50;96.70;;;;;;5002567;28;20099;-74
2021/07/06 05:00:16;;;;;;;4.35;1.30;;;21.50;96.70;;;;;;5008197;28;20111;-75
2021/07/06 05:02:45;;;;;;;5.03;1.17;;;21.50;96.70;;;;;;5005355;28;20117;-75
2021/07/06 05:05:19;;;;;;;3.40;1.23;;;21.50;96.70;;;;;;5029165;28;20049;-75
2021/07/06 05:07:48;;;;;;;6.20;1.58;;;21.70;96.70;;;;;;5005483;28;20050;-75
2021/07/06 05:10:17;;;;;;;4.07;1.58;;;21.60;96.70;;;;;;5003264;28;20045;-75
2021/07/06 05:12:45;;;;;;;6.68;1.00;;;21.60;96.70;;;;;;5005142;28;20499;-75
2021/07/06 05:15:13;;;;;;;3.78;1.25;;;21.60;96.70;;;;;;5011650;28;20041;-74
2021/07/06 05:17:41;;;;;;;2.72;1.17;;;21.60;96.70;;;;;;5001806;28;20119;-75
2021/07/06 05:20:11;;;;;;;4.53;1.35;;;21.60;96.70;;;;;;5023210;28;20297;-75
2021/07/06 05:22:43;;;;;;;3.40;1.10;;;21.70;96.70;;;;;;5004229;28;20544;-75
2021/07/06 05:25:13;;;;;;;3.28;1.35;;;21.80;96.70;;;;;;5006197;28;20092;-74
2021/07/06 05:27:42;;;;;;;3.88;1.20;;;21.80;96.70;;;;;;5003974;28;20103;-75
2021/07/06 05:30:12;;;;;;;4.22;1.75;;;21.80;96.70;;;;;;5024642;28;20077;-74
2021/07/06 05:32:40;;;;;;;3.65;1.35;;;21.90;96.70;;;;;;5002406;28;20616;-75
2021/07/06 05:35:10;;;;;;;5.00;1.58;;;21.90;96.70;;;;;;5029535;28;20034;-75
2021/07/06 05:37:38;;;;;;;4.53;1.70;;;22.00;96.70;;;;;;5005000;28;20050;-75
2021/07/06 05:40:10;;;;;;;3.00;1.30;;;22.00;96.70;;;;;;5009231;28;20033;-75
2021/07/06 05:42:41;;;;;;;3.65;1.20;;;22.00;96.70;;;;;;5017915;28;20038;-75
2021/07/06 05:45:10;;;;;;;7.28;1.50;;;22.10;96.70;;;;;;5005933;28;20507;-75
2021/07/06 05:47:39;;;;;;;3.50;1.73;;;22.20;96.70;;;;;;5006530;28;20057;-75
2021/07/06 05:50:11;;;;;;;7.93;2.00;;;22.30;96.70;;;;;;5004764;28;20046;-75
2021/07/06 05:52:40;;;;;;;4.68;1.98;;;22.40;96.70;;;;;;5005414;28;20037;-75
2021/07/06 05:55:09;;;;;;;6.07;2.10;;;22.50;96.70;;;;;;5002774;28;20038;-75
2021/07/06 05:57:42;;;;;;;6.85;2.13;;;22.60;96.70;;;;;;5004115;28;20041;-78
2021/07/06 06:00:13;;;;;;;11.52;2.40;;;22.60;96.70;;;;;;5015047;28;20307;-78
2021/07/06 06:02:46;;;;;;;5.18;1.90;;;22.50;96.70;;;;;;5019909;28;20045;-77
2021/07/06 06:05:14;;;;;;;4.75;1.98;;;22.60;96.70;;;;;;5005397;28;20046;-77
2021/07/06 06:07:43;;;;;;;5.63;1.98;;;22.60;96.70;;;;;;5006243;28;20477;-76
2021/07/06 06:10:12;;;;;;;6.93;2.35;;;22.70;96.70;;;;;;5001359;28;20046;-77
2021/07/06 06:12:42;;;;;;;8.18;2.33;;;22.70;96.70;;;;;;5006715;28;20048;-78
2021/07/06 06:15:11;;;;;;;4.97;1.48;;;22.70;96.70;;;;;;5005139;28;20042;-75
2021/07/06 06:17:41;;;;;;;3.75;1.98;;;22.80;96.70;;;;;;5007108;28;20065;-75
2021/07/06 06:20:11;;;;;;;4.90;1.98;;;22.80;96.70;;;;;;5004890;28;20045;-75
2021/07/06 06:22:40;;;;;;;6.43;2.10;;;22.80;96.70;;;;;;5012614;28;20142;-75
2021/07/06 06:25:10;;;;;;;5.03;1.67;;;22.80;96.70;;;;;;5017410;28;20411;-75
2021/07/06 06:27:39;;;;;;;6.68;2.03;;;22.90;96.70;;;;;;5008638;28;20064;-75
2021/07/06 06:30:11;;;;;;;6.00;1.60;;;22.90;96.70;;;;;;5002649;28;20534;-75
2021/07/06 06:32:39;;;;;;;7.43;1.70;;;22.90;96.70;;;;;;5010591;28;20037;-75
2021/07/06 06:35:08;;;;;;;6.70;1.80;;;22.90;96.70;;;;;;5023735;28;20038;-74
2021/07/06 06:37:37;;;;;;;5.07;1.63;;;23.00;96.70;;;;;;5005315;28;20096;-75
2021/07/06 06:40:08;;;;;;;4.45;1.30;;;23.00;96.70;;;;;;5017505;28;20073;-74
2021/07/06 06:42:37;;;;;;;4.57;1.55;;;23.00;96.70;;;;;;5006791;28;20116;-75
2021/07/06 06:45:09;;;;;;;7.75;1.80;;;23.00;96.70;;;;;;4985569;28;20454;-75
2021/07/06 06:47:37;;;;;;;4.95;1.75;;;23.10;96.70;;;;;;5022425;28;20038;-76
2021/07/06 06:50:07;;;;;;;4.97;1.38;;;23.30;96.70;;;;;;5004751;28;20065;-75
2021/07/06 06:52:36;;;;;;;4.30;1.33;;;23.40;96.70;;;;;;5006436;28;20038;-76
2021/07/06 06:55:06;;;;;;;6.55;1.60;;;23.50;96.70;;;;;;4988567;28;20042;-75
2021/07/06 06:57:39;;;;;;;4.35;1.73;;;23.50;96.70;;;;;;5003614;28;20181;-75
2021/07/06 07:00:09;;;;;;;6.45;1.50;;;23.60;96.70;;;;;;5002507;28;20981;-76
2021/07/06 07:02:48;;;;;;;4.35;1.48;;;23.70;96.70;;;;;;5007117;28;20445;-74
2021/07/06 07:05:18;;;;;;;3.97;1.33;;;23.70;96.70;;;;;;4989159;28;20154;-76
2021/07/06 07:07:46;;;;;;;4.57;1.40;;;23.80;96.70;;;;;;5004102;28;20033;-76
2021/07/06 07:10:14;;;;;;;7.05;1.55;;;24.00;96.70;;;;;;5002891;28;20145;-76
2021/07/06 07:12:43;;;;;;;4.38;1.83;;;24.10;96.70;;;;;;5003879;28;20057;-75
2021/07/06 07:15:13;;;;;;;4.90;1.40;;;24.10;96.70;;;;;;5008031;28;20037;-75
2021/07/06 07:17:41;;;;;;;5.80;1.70;;;24.20;96.70;;;;;;5009369;28;20130;-75
2021/07/06 07:20:11;;;;;;;5.13;1.67;;;24.20;96.70;;;;;;5007982;28;20053;-76
2021/07/06 07:22:40;;;;;;;6.22;1.48;;;24.20;96.70;;;;;;5003261;28;20038;-76
2021/07/06 07:25:09;;;;;;;5.95;1.48;;;24.30;96.70;;;;;;5007962;28;20037;-76
2021/07/06 07:27:38;;;;;;;5.75;2.50;;;24.30;96.70;;;;;;5004882;28;20095;-75
2021/07/06 07:30:07;;;;;;;3.60;1.75;;;24.40;96.70;;;;;;5003713;28;20053;-75
2021/07/06 07:32:37;;;;;;;4.18;1.70;;;24.40;96.70;;;;;;5004219;28;20042;-76
2021/07/06 07:35:06;;;;;;;7.68;2.35;;;24.50;96.70;;;;;;5005852;28;20495;-75
2021/07/06 07:37:34;;;;;;;5.20;2.03;;;24.60;96.70;;;;;;5001778;28;20662;-75
2021/07/06 07:40:04;;;;;;;7.95;2.15;;;24.70;96.70;;;;;;5004822;28;20080;-75
2021/07/06 07:42:32;;;;;;;6.50;2.25;;;24.70;96.70;;;;;;5022090;28;20126;-76
2021/07/06 07:45:00;;;;;;;7.13;2.20;;;24.80;96.70;;;;;;5007135;28;20045;-75
2021/07/06 07:47:28;;;;;;;5.55;2.40;;;24.90;96.70;;;;;;5001809;28;20148;-75
2021/07/06 07:49:58;;;;;;;2.83;1.58;;;25.00;96.70;;;;;;5002263;28;20064;-74
2021/07/06 07:52:31;;;;;;;6.13;1.63;;;25.00;96.70;;;;;;5001518;28;20038;-74
2021/07/06 07:54:59;;;;;;;4.00;1.70;;;25.10;96.70;;;;;;5008940;28;20045;-75
2021/07/06 07:57:27;;;;;;;4.05;1.40;;;25.20;96.70;;;;;;5003607;28;20038;-75
2021/07/06 07:59:56;;;;;;;5.95;1.70;;;25.20;96.70;;;;;;5001473;28;20575;-75
2021/07/06 08:02:24;;;;;;;6.22;2.00;;;25.20;96.70;;;;;;4986783;28;20467;-75
2021/07/06 08:04:59;;;;;;;6.07;1.88;;;25.20;96.70;;;;;;5020561;28;20050;-75
2021/07/06 08:07:28;;;;;;;4.93;2.00;;;25.20;96.70;;;;;;5009937;28;20105;-76
2021/07/06 08:09:56;;;;;;;13.63;2.92;;;25.30;96.70;;;;;;5004074;28;20042;-76
2021/07/06 08:12:24;;;;;;;6.32;1.60;;;25.30;96.70;;;;;;5002768;28;20527;-76
2021/07/06 08:14:52;;;;;;;5.38;2.03;;;25.40;96.70;;;;;;5022250;28;20083;-75
2021/07/06 08:17:20;;;;;;;4.38;1.50;;;25.40;96.70;;;;;;5007833;28;20038;-76
2021/07/06 08:19:50;;;;;;;2.63;1.55;;;25.40;96.70;;;;;;5003340;28;20054;-75
2021/07/06 08:22:20;;;;;;;4.53;1.55;;;25.50;96.70;;;;;;5005475;28;20441;-75
2021/07/06 08:24:48;;;;;;;3.42;1.30;;;25.60;96.70;;;;;;5003103;28;20069;-75
2021/07/06 08:27:16;;;;;;;2.25;1.10;;;25.60;96.70;;;;;;5004292;28;20392;-76
2021/07/06 08:29:44;;;;;;;4.25;1.20;;;25.80;96.70;;;;;;5002186;28;20104;-75
2021/07/06 08:32:12;;;;;;;2.25;1.27;;;25.90;96.70;;;;;;5002577;28;20068;-75
2021/07/06 08:34:41;;;;;;;2.45;1.17;;;25.90;96.70;;;;;;5003908;28;20056;-75
2021/07/06 08:37:09;;;;;;;3.40;1.70;;;25.90;96.70;;;;;;5013330;28;20424;-75
2021/07/06 08:39:39;;;;;;;6.15;1.75;;;26.00;96.70;;;;;;5003703;28;20137;-75
2021/07/06 08:42:10;;;;;;;5.50;1.60;;;26.10;96.70;;;;;;5003314;28;20046;-75
2021/07/06 08:44:41;;;;;;;6.95;1.70;;;26.30;96.70;;;;;;5001085;28;20128;-75
2021/07/06 08:47:17;;;;;;;5.18;1.42;;;26.40;96.70;;;;;;5007348;28;20838;-75
2021/07/06 08:49:47;;;;;;;4.03;1.88;;;26.50;96.70;;;;;;4982408;28;20131;-75
2021/07/06 08:52:17;;;;;;;6.97;1.83;;;26.50;96.70;;;;;;5001544;28;20066;-75
2021/07/06 08:54:47;;;;;;;3.97;1.65;;;26.60;96.70;;;;;;5005037;28;20046;-76
2021/07/06 08:57:21;;;;;;;3.45;1.73;;;26.70;96.70;;;;;;5005908;28;20062;-75
2021/07/06 08:59:49;;;;;;;4.40;1.70;;;26.80;96.70;;;;;;5000628;28;20112;-75
2021/07/06 09:02:21;;;;;;;3.70;1.67;;;26.80;96.40;;;;;;4987985;28;20041;-75
2021/07/06 09:04:50;;;;;;;7.35;1.98;;;26.90;96.10;;;;;;5001723;28;20069;-76
2021/07/06 09:07:19;;;;;;;5.13;1.83;;;26.90;95.90;;;;;;4999269;28;20045;-75
2021/07/06 09:09:50;;;;;;;3.47;1.63;;;26.90;96.00;;;;;;4997316;28;20054;-75
2021/07/06 09:12:20;;;;;;;6.15;1.85;;;27.00;95.30;;;;;;5007554;28;20033;-75
2021/07/06 09:14:49;;;;;;;3.78;1.70;;;27.10;94.40;;;;;;5004972;28;20072;-75
2021/07/06 09:17:22;;;;;;;2.83;1.30;;;27.20;94.90;;;;;;5004985;28;20045;-75
2021/07/06 09:19:52;;;;;;;2.58;1.45;;;27.30;93.20;;;;;;4990196;28;20496;-76
2021/07/06 09:22:21;;;;;;;3.85;1.77;;;27.30;93.50;;;;;;5006726;28;20120;-76
2021/07/06 09:25:00;;;;;;;3.58;1.35;;;27.40;93.80;;;;;;5004359;28;20069;-76
2021/07/06 09:27:29;;;;;;;4.88;1.80;;;27.40;94.20;;;;;;5002004;28;20042;-75
2021/07/06 09:30:11;;;;;;;4.47;2.03;;;27.50;93.90;;;;;;4984899;28;20129;-75
2021/07/06 09:32:48;;;;;;;4.38;1.70;;;27.70;93.20;;;;;;5003314;28;20204;-74
2021/07/06 09:35:23;;;;;;;6.78;2.25;;;27.80;93.00;;;;;;5008436;28;20216;-75
2021/07/06 09:37:54;;;;;;;7.40;2.25;;;27.80;92.50;;;;;;4988263;28;20095;-75
2021/07/06 09:40:30;;;;;;;5.03;2.28;;;27.80;92.20;;;;;;5008283;28;20129;-75
2021/07/06 09:43:16;;;;;;;6.05;1.85;;;27.80;91.90;;;;;;5009951;28;20115;-75
2021/07/06 09:46:01;;;;;;;4.40;2.22;;;28.00;92.00;;;;;;5006294;28;20657;-75
2021/07/06 09:48:30;;;;;;;4.18;1.30;;;28.00;91.70;;;;;;5006944;28;20053;-75
2021/07/06 09:51:20;;;;;;;3.55;1.67;;;28.10;91.80;;;;;;5007807;28;20046;-75
2021/07/06 09:53:49;;;;;;;3.20;1.60;;;28.10;90.50;;;;;;5002523;28;20519;-75
2021/07/06 09:56:22;;;;;;;4.85;1.75;;;28.10;90.90;;;;;;5004424;28;20761;-75
2021/07/06 09:58:59;;;;;;;4.07;2.10;;;28.20;90.90;;;;;;5022642;28;20129;-76
2021/07/06 10:01:28;;;;;;;4.28;1.50;;;28.30;90.30;;;;;;5002980;28;20765;-75
2021/07/06 10:03:57;;;;;;;3.03;1.55;;;28.40;90.80;;;;;;5004359;28;20037;-75
2021/07/06 10:06:28;;;;;;;3.10;1.75;;;28.40;90.00;;;;;;5019044;28;20104;-76
2021/07/06 10:08:56;;;;;;;3.58;1.80;;;28.50;89.90;;;;;;5020335;28;20602;-76
2021/07/06 10:11:26;;;;;;;5.20;1.77;;;28.70;89.60;;;;;;5009213;28;20434;-76
2021/07/06 10:13:56;;;;;;;2.92;1.60;;;28.70;89.10;;;;;;5007817;28;20054;-76
2021/07/06 10:16:25;;;;;;;3.65;1.48;;;28.80;88.90;;;;;;5001625;28;20034;-76
2021/07/06 10:18:54;;;;;;;3.78;1.70;;;28.80;88.80;;;;;;5006824;28;20038;-75
2021/07/06 10:21:23;;;;;;;3.08;1.60;;;28.90;89.20;;;;;;5003813;28;20072;-76
2021/07/06 10:23:51;;;;;;;5.97;1.88;;;29.10;89.10;;;;;;5007116;28;20054;-76
2021/07/06 10:26:25;;;;;;;3.22;1.50;;;29.20;88.10;;;;;;4991174;28;20041;-76
2021/07/06 10:28:55;;;;;;;4.57;1.60;;;29.10;87.90;;;;;;5005950;28;20038;-76
2021/07/06 10:31:25;;;;;;;5.38;1.92;;;29.10;88.30;;;;;;5004469;28;20045;-76
2021/07/06 10:33:54;;;;;;;6.40;2.15;;;29.10;88.70;;;;;;5008822;28;20062;-76
2021/07/06 10:36:37;;;;;;;3.97;1.67;;;29.40;88.00;;;;;;5005792;28;20053;-76
2021/07/06 10:39:06;;;;;;;5.47;1.80;;;29.40;88.20;;;;;;5000126;28;20041;-76
2021/07/06 10:41:55;;;;;;;3.38;1.40;;;29.40;87.90;;;;;;5004643;28;20038;-75
2021/07/06 10:44:34;;;;;;;6.43;1.63;;;29.60;87.60;;;;;;5002089;28;20065;-76
2021/07/06 10:47:04;;;;;;;5.38;1.67;;;29.60;88.40;;;;;;5021989;28;20770;-75
2021/07/06 10:49:34;;;;;;;4.00;1.70;;;29.80;88.50;;;;;;5001221;28;20149;-76
2021/07/06 10:52:10;;;;;;;3.17;1.92;;;30.00;87.00;;;;;;5007416;28;20042;-76
2021/07/06 10:54:38;;;;;;;3.47;1.52;;;30.10;87.00;;;;;;5004001;28;20703;-76
2021/07/06 10:57:23;;;;;;;6.60;1.65;;;30.30;87.00;;;;;;5008993;28;20037;-76
2021/07/06 10:59:57;;;;;;;4.38;1.85;;;30.50;85.70;;;;;;5000259;28;20040;-76
2021/07/06 11:02:29;;;;;;;2.92;1.60;;;30.50;85.40;;;;;;4994697;28;20112;-76
2021/07/06 11:05:03;;;;;;;2.58;1.42;;;30.70;83.60;;;;;;5018062;28;20065;-75
2021/07/06 11:07:51;;;;;;;4.65;1.50;;;30.90;82.90;;;;;;5009685;28;20628;-75
2021/07/06 11:10:49;;;;;;;2.50;1.63;;;31.00;83.00;;;;;;5003296;28;20056;-76
2021/07/06 11:13:20;;;;;;;3.78;1.65;;;30.90;83.30;;;;;;5017409;28;20046;-75
2021/07/06 11:15:50;;;;;;;4.80;2.13;;;31.20;83.60;;;;;;5020661;28;20053;-76
2021/07/06 11:18:33;;;;;;;3.10;1.70;;;31.20;83.90;;;;;;5001753;28;20050;-76
2021/07/06 11:21:01;;;;;;;2.97;1.63;;;31.20;82.40;;;;;;5006931;28;20045;-75
2021/07/06 11:23:31;;;;;;;1.70;1.20;;;31.20;81.00;;;;;;4985455;28;20050;-75
2021/07/06 11:26:04;;;;;;;3.15;1.48;;;31.30;80.20;;;;;;4986736;28;20096;-75
2021/07/06 11:28:49;;;;;;;2.90;1.23;;;31.50;80.90;;;;;;5004558;28;20041;-75
2021/07/06 11:31:20;;;;;;;5.30;1.60;;;31.50;80.40;;;;;;5004799;28;20051;-75
2021/07/06 11:33:48;;;;;;;2.78;1.38;;;31.60;80.20;;;;;;5008515;28;20068;-76
2021/07/06 11:36:19;;;;;;;2.08;1.17;;;31.60;80.40;;;;;;5006389;28;20053;-76
2021/07/06 11:38:49;;;;;;;3.03;1.25;;;31.70;80.50;;;;;;4987978;28;20120;-75
2021/07/06 11:41:19;;;;;;;3.25;1.40;;;31.70;77.70;;;;;;5008249;28;20030;-75
2021/07/06 11:43:48;;;;;;;4.20;1.40;;;31.80;77.80;;;;;;5000962;28;20143;-74
2021/07/06 11:46:19;;;;;;;3.53;1.40;;;32.00;78.60;;;;;;5006340;28;20053;-75
2021/07/06 11:48:48;;;;;;;2.88;1.58;;;32.00;78.60;;;;;;5008825;28;20061;-75
2021/07/06 11:51:17;;;;;;;2.80;1.42;;;32.10;78.70;;;;;;5003443;28;20139;-75
2021/07/06 11:53:53;;;;;;;3.17;1.40;;;32.00;77.40;;;;;;5006475;28;20045;-74
2021/07/06 11:56:24;;;;;;;1.95;1.33;;;32.10;77.60;;;;;;5018939;28;20193;-74
2021/07/06 11:58:52;;;;;;;5.32;1.75;;;32.20;77.10;;;;;;5008439;28;20038;-75
2021/07/06 12:01:23;;;;;;;1.52;1.20;;;32.20;76.40;;;;;;5004824;28;20042;-74
2021/07/06 12:03:51;;;;;;;2.45;1.40;;;32.30;77.00;;;;;;5012409;28;20118;-74
2021/07/06 12:06:21;;;;;;;1.52;1.00;;;32.30;76.80;;;;;;4986390;28;20046;-75
2021/07/06 12:08:52;;;;;;;4.68;1.50;;;32.40;77.40;;;;;;5003085;28;20058;-74
2021/07/06 12:11:22;;;;;;;3.95;1.55;;;32.60;77.60;;;;;;5018122;28;20480;-74
2021/07/06 12:13:52;;;;;;;3.28;1.63;;;32.70;76.90;;;;;;5011165;28;20038;-75
2021/07/06 12:16:23;;;;;;;5.40;1.48;;;32.90;77.00;;;;;;5000122;28;20310;-75
2021/07/06 12:18:53;;;;;;;2.65;1.45;;;32.90;76.40;;;;;;5007738;28;20061;-75
2021/07/06 12:21:24;;;;;;;3.70;1.30;;;32.80;76.00;;;;;;5002091;28;20053;-74
2021/07/06 12:23:56;;;;;;;3.03;1.50;;;32.90;76.70;;;;;;5006169;28;20125;-74
2021/07/06 12:26:26;;;;;;;7.18;1.75;;;33.00;75.60;;;;;;5001191;28;20038;-76
2021/07/06 12:28:55;;;;;;;2.88;1.60;;;33.00;75.40;;;;;;5005630;28;20051;-74
2021/07/06 12:31:28;;;;;;;2.97;1.50;;;33.00;75.80;;;;;;5005190;28;20136;-75
2021/07/06 12:34:09;;;;;;;3.25;1.40;;;33.10;75.50;;;;;;5015942;28;20129;-75
2021/07/06 12:36:40;;;;;;;2.55;1.35;;;33.10;75.70;;;;;;5004242;28;20100;-75
2021/07/06 12:39:15;;;;;;;2.65;1.30;;;33.20;75.00;;;;;;5001960;28;20561;-75
2021/07/06 12:41:45;;;;;;;8.45;1.77;;;33.20;75.10;;;;;;5003631;28;20096;-75
2021/07/06 12:44:18;;;;;;;5.43;1.48;;;33.10;75.10;;;;;;5001108;28;20546;-75
2021/07/06 12:46:48;;;;;;;3.70;1.63;;;33.20;76.00;;;;;;5005643;28;20388;-76
2021/07/06 12:49:26;;;;;;;4.10;1.40;;;33.20;74.50;;;;;;5001219;28;20054;-76
2021/07/06 12:51:59;;;;;;;5.07;2.05;;;33.30;74.90;;;;;;5003289;28;20542;-76
2021/07/06 12:54:32;;;;;;;2.63;1.42;;;33.30;75.40;;;;;;4998216;28;20038;-76
2021/07/06 12:57:02;;;;;;;2.60;1.65;;;33.40;76.00;;;;;;5000943;28;20404;-76
2021/07/06 12:59:31;;;;;;;3.17;1.52;;;33.50;76.00;;;;;;5002299;28;20049;-75
2021/07/06 13:02:18;;;;;;;3.22;1.80;;;33.60;76.30;;;;;;5004800;28;20192;-75
2021/07/06 13:04:51;;;;;;;3.13;1.45;;;33.40;76.00;;;;;;5003000;28;20508;-75